createdAt,value
2022-10-21T00:00:57.755Z,23.95
2022-10-21T00:02:06.160Z,29.63
2022-10-21T00:03:08.146Z,25.60
2022-10-21T00:04:10.675Z,21.92
2022-10-21T00:05:12.693Z,25.23
2022-10-21T00:06:15.180Z,22.90
2022-10-21T00:07:16.744Z,26.55
2022-10-21T00:08:21.925Z,25.63
2022-10-21T00:09:23.451Z,22.55
2022-10-21T00:10:26.047Z,30.60
2022-10-21T00:11:27.612Z,28.67
2022-10-21T00:12:30.688Z,20.95
2022-10-21T00:13:34.081Z,21.55
2022-10-21T00:14:37.007Z,27.38
2022-10-21T00:15:38.739Z,28.48
2022-10-21T00:16:41.228Z,24.40
2022-10-21T00:17:43.279Z,27.55
2022-10-21T00:18:47.506Z,30.42
2022-10-21T00:19:49.415Z,23.77
2022-10-21T00:20:52.042Z,23.08
2022-10-21T00:21:53.594Z,25.25
2022-10-21T00:22:56.127Z,22.30
2022-10-21T00:23:59.072Z,19.08
2022-10-21T00:25:01.901Z,26.33
2022-10-21T00:26:03.549Z,25.73
2022-10-21T00:27:06.093Z,23.13
2022-10-21T00:28:07.670Z,24.17
2022-10-21T00:29:10.476Z,19.95
2022-10-21T00:30:13.488Z,21.23
2022-10-21T00:31:17.203Z,21.75
2022-10-21T00:32:18.831Z,18.80
2022-10-21T00:33:22.108Z,25.38
2022-10-21T00:34:27.040Z,23.33
2022-10-21T00:35:34.603Z,23.52
2022-10-21T00:36:36.156Z,20.20
2022-10-21T00:37:38.978Z,18.33
2022-10-21T00:38:41.679Z,22.38
2022-10-21T00:39:45.543Z,17.38
2022-10-21T00:40:47.168Z,20.95
2022-10-21T00:41:49.696Z,22.10
2022-10-21T00:42:51.212Z,19.90
2022-10-21T00:43:58.822Z,23.23
2022-10-21T00:45:17.229Z,20.85
2022-10-21T00:46:19.760Z,19.23
2022-10-21T00:47:22.364Z,20.80
2022-10-21T00:48:33.703Z,25.02
2022-10-21T00:49:39.615Z,21.10
2022-10-21T00:50:49.160Z,19.80
2022-10-21T00:51:54.893Z,20.02
2022-10-21T00:52:59.655Z,29.10
2022-10-21T00:54:02.670Z,20.88
2022-10-21T00:55:08.014Z,19.80
2022-10-21T00:56:16.621Z,20.60
2022-10-21T00:57:21.101Z,19.63
2022-10-21T00:58:26.386Z,18.52
2022-10-21T00:59:32.428Z,22.92
2022-10-21T01:00:33.924Z,22.25
2022-10-21T01:01:36.605Z,20.15
2022-10-21T01:02:38.256Z,22.08
2022-10-21T01:03:40.929Z,21.27
2022-10-21T01:04:43.144Z,18.20
2022-10-21T01:05:46.414Z,21.73
2022-10-21T01:06:48.839Z,21.05
2022-10-21T01:07:52.513Z,22.58
2022-10-21T01:08:56.568Z,20.80
2022-10-21T01:09:59.495Z,26.23
2022-10-21T01:11:03.552Z,22.90
2022-10-21T01:12:16.114Z,23.00
2022-10-21T01:13:28.376Z,25.17
2022-10-21T01:14:50.963Z,20.77
2022-10-21T01:15:59.759Z,16.88
2022-10-21T01:17:26.446Z,22.33
2022-10-21T01:18:44.156Z,18.65
2022-10-21T01:20:18.850Z,27.17
2022-10-21T01:21:31.608Z,19.92
2022-10-21T01:22:52.701Z,23.67
2022-10-21T01:24:37.162Z,19.50
2022-10-21T01:26:05.414Z,20.17
2022-10-21T01:27:27.078Z,28.33
2022-10-21T01:28:40.084Z,18.38
2022-10-21T01:30:12.682Z,19.50
2022-10-21T01:31:21.434Z,21.80
2022-10-21T01:32:33.455Z,21.98
2022-10-21T01:33:41.124Z,18.67
2022-10-21T01:34:51.050Z,20.27
2022-10-21T01:35:57.890Z,20.58
2022-10-21T01:37:11.117Z,21.48
2022-10-21T01:38:19.917Z,20.70
2022-10-21T01:39:29.095Z,22.65
2022-10-21T01:40:37.328Z,23.00
2022-10-21T01:41:43.278Z,22.42
2022-10-21T01:42:52.524Z,21.02
2022-10-21T01:44:03.186Z,20.80
2022-10-21T01:45:12.613Z,23.50
2022-10-21T01:46:23.672Z,20.58
2022-10-21T01:47:31.293Z,25.75
2022-10-21T01:48:38.492Z,21.83
2022-10-21T01:49:47.954Z,21.95
2022-10-21T01:50:53.550Z,22.02
2022-10-21T01:51:56.649Z,19.58
2022-10-21T01:53:02.662Z,25.88
2022-10-21T01:54:08.802Z,18.27
2022-10-21T01:55:15.547Z,18.75
2022-10-21T01:56:18.894Z,19.63
2022-10-21T01:57:24.398Z,20.92
2022-10-21T01:58:31.067Z,19.60
2022-10-21T01:59:33.891Z,20.45
2022-10-21T02:00:38.081Z,19.30
2022-10-21T02:01:44.030Z,19.67
2022-10-21T02:02:49.483Z,18.75
2022-10-21T02:04:01.229Z,22.58
2022-10-21T02:05:11.727Z,19.40
2022-10-21T02:06:14.032Z,18.23
2022-10-21T02:07:16.519Z,17.90
2022-10-21T02:08:18.193Z,19.20
2022-10-21T02:09:20.795Z,16.70
2022-10-21T02:10:25.350Z,19.38
2022-10-21T02:11:29.436Z,17.50
2022-10-21T02:12:33.728Z,18.98
2022-10-21T02:13:42.720Z,15.93
2022-10-21T02:14:48.657Z,19.48
2022-10-21T02:15:53.651Z,15.95
2022-10-21T02:16:59.371Z,17.88
2022-10-21T02:18:05.567Z,16.13
2022-10-21T02:19:15.194Z,19.27
2022-10-21T02:20:18.021Z,17.95
2022-10-21T02:21:24.219Z,15.52
2022-10-21T02:22:28.332Z,12.50
2022-10-21T02:23:39.100Z,17.60
2022-10-21T02:24:46.199Z,13.57
2022-10-21T02:25:51.704Z,16.83
2022-10-21T02:26:53.598Z,13.43
2022-10-21T02:27:56.594Z,15.30
2022-10-21T02:28:59.279Z,12.48
2022-10-21T02:30:02.504Z,15.90
2022-10-21T02:31:17.999Z,16.77
2022-10-21T02:32:29.867Z,11.80
2022-10-21T02:33:43.797Z,18.17
2022-10-21T02:35:01.413Z,19.40
2022-10-21T02:36:12.601Z,14.25
2022-10-21T02:37:22.575Z,16.42
2022-10-21T02:38:28.410Z,21.98
2022-10-21T02:39:36.661Z,11.02
2022-10-21T02:40:42.955Z,13.45
2022-10-21T02:41:46.943Z,11.15
2022-10-21T02:42:52.418Z,14.55
2022-10-21T02:43:59.010Z,14.85
2022-10-21T02:45:02.092Z,14.73
2022-10-21T02:46:08.922Z,15.07
2022-10-21T02:48:20.052Z,10.40
2022-10-21T02:49:22.818Z,12.05
2022-10-21T02:50:25.316Z,11.25
2022-10-21T02:51:26.845Z,10.57
2022-10-21T02:52:29.334Z,11.98
2022-10-21T02:53:31.036Z,17.60
2022-10-21T02:54:33.571Z,13.63
2022-10-21T02:55:35.160Z,10.82
2022-10-21T02:56:37.604Z,8.90
2022-10-21T02:57:39.427Z,11.43
2022-10-21T02:58:42.138Z,14.43
2022-10-21T02:59:43.703Z,11.50
2022-10-21T03:00:46.283Z,14.38
2022-10-21T03:01:47.871Z,13.98
2022-10-21T03:02:50.338Z,9.57
2022-10-21T03:03:53.227Z,16.00
2022-10-21T03:04:55.939Z,11.90
2022-10-21T03:05:58.890Z,19.80
2022-10-21T03:07:01.535Z,11.55
2022-10-21T03:08:03.293Z,16.77
2022-10-21T03:09:06.264Z,9.75
2022-10-21T03:10:08.895Z,10.50
2022-10-21T03:11:11.492Z,14.50
2022-10-21T03:12:13.058Z,13.30
2022-10-21T03:13:15.718Z,12.18
2022-10-21T03:14:18.572Z,12.02
2022-10-21T03:15:20.297Z,9.75
2022-10-21T03:16:22.832Z,8.65
2022-10-21T03:17:25.433Z,11.30
2022-10-21T03:18:28.199Z,10.90
2022-10-21T03:19:31.205Z,12.77
2022-10-21T03:20:33.820Z,12.93
2022-10-21T03:21:35.492Z,11.40
2022-10-21T03:22:38.020Z,12.55
2022-10-21T03:23:39.848Z,10.45
2022-10-21T03:24:42.366Z,12.18
2022-10-21T03:25:43.949Z,12.38
2022-10-21T03:26:46.534Z,10.18
2022-10-21T03:27:49.717Z,12.10
2022-10-21T03:28:52.350Z,10.40
2022-10-21T03:29:53.904Z,12.48
2022-10-21T03:30:56.479Z,9.65
2022-10-21T03:31:58.048Z,13.82
2022-10-21T03:33:00.530Z,10.45
2022-10-21T03:34:02.108Z,8.25
2022-10-21T03:35:07.148Z,10.95
2022-10-21T03:36:09.956Z,9.93
2022-10-21T03:37:11.994Z,10.00
2022-10-21T03:38:14.882Z,9.45
2022-10-21T03:39:16.655Z,13.07
2022-10-21T03:40:19.640Z,14.00
2022-10-21T03:41:21.176Z,9.85
2022-10-21T03:42:23.681Z,10.73
2022-10-21T03:43:25.322Z,17.90
2022-10-21T03:44:27.782Z,13.95
2022-10-21T03:45:29.310Z,10.70
2022-10-21T03:46:31.948Z,18.67
2022-10-21T03:47:33.469Z,9.98
2022-10-21T03:48:35.952Z,10.50
2022-10-21T03:49:37.488Z,14.35
2022-10-21T03:50:41.314Z,11.15
2022-10-21T03:51:42.829Z,9.30
2022-10-21T03:52:45.406Z,9.60
2022-10-21T03:53:46.930Z,11.98
2022-10-21T03:54:49.406Z,8.32
2022-10-21T03:55:56.334Z,10.05
2022-10-21T03:56:59.573Z,13.20
2022-10-21T03:58:01.115Z,13.90
2022-10-21T03:59:03.847Z,9.15
2022-10-21T04:00:06.628Z,12.02
2022-10-21T04:01:13.663Z,10.00
2022-10-21T04:02:15.243Z,14.07
2022-10-21T04:03:17.751Z,12.88
2022-10-21T04:04:20.344Z,13.20
2022-10-21T04:05:21.872Z,9.90
2022-10-21T04:06:25.806Z,12.40
2022-10-21T04:07:27.533Z,12.60
2022-10-21T04:08:30.071Z,12.15
2022-10-21T04:09:31.610Z,7.53
2022-10-21T04:10:34.070Z,10.27
2022-10-21T04:11:35.591Z,22.95
2022-10-21T04:12:38.426Z,15.32
2022-10-21T04:13:40.164Z,14.80
2022-10-21T04:14:42.646Z,10.00
2022-10-21T04:15:45.511Z,10.55
2022-10-21T04:16:50.511Z,9.43
2022-10-21T04:18:02.381Z,12.30
2022-10-21T04:19:04.895Z,8.80
2022-10-21T04:20:07.798Z,9.90
2022-10-21T04:21:10.544Z,17.25
2022-10-21T04:22:13.411Z,9.30
2022-10-21T04:23:15.914Z,11.02
2022-10-21T04:24:17.459Z,10.20
2022-10-21T04:25:20.101Z,9.48
2022-10-21T04:26:21.668Z,14.85
2022-10-21T04:27:24.176Z,11.20
2022-10-21T04:28:25.781Z,12.70
2022-10-21T04:29:28.263Z,12.20
2022-10-21T04:30:29.823Z,6.95
2022-10-21T04:31:32.456Z,13.15
2022-10-21T04:32:43.840Z,9.73
2022-10-21T04:33:46.421Z,8.73
2022-10-21T04:34:47.949Z,9.27
2022-10-21T04:35:50.416Z,12.20
2022-10-21T04:36:52.068Z,8.65
2022-10-21T04:37:55.967Z,13.30
2022-10-21T04:38:57.507Z,8.73
2022-10-21T04:39:59.986Z,11.02
2022-10-21T04:41:03.452Z,19.23
2022-10-21T04:42:06.011Z,15.80
2022-10-21T04:43:07.522Z,9.80
2022-10-21T04:44:10.301Z,9.02
2022-10-21T04:45:11.815Z,11.95
2022-10-21T04:46:16.869Z,8.15
2022-10-21T04:47:18.633Z,7.93
2022-10-21T04:48:21.236Z,11.00
2022-10-21T04:49:22.884Z,10.10
2022-10-21T04:50:25.957Z,11.82
2022-10-21T04:51:27.771Z,7.78
2022-10-21T04:52:30.658Z,9.48
2022-10-21T04:53:33.555Z,8.00
2022-10-21T04:54:36.071Z,7.07
2022-10-21T04:55:39.113Z,7.10
2022-10-21T04:56:41.659Z,7.22
2022-10-21T04:57:43.182Z,9.93
2022-10-21T04:58:45.767Z,9.43
2022-10-21T04:59:47.545Z,12.05
2022-10-21T05:00:50.873Z,6.30
2022-10-21T05:01:53.579Z,7.30
2022-10-21T05:02:55.169Z,6.63
2022-10-21T05:03:57.788Z,7.65
2022-10-21T05:04:59.314Z,5.95
2022-10-21T05:06:01.873Z,6.20
2022-10-21T05:07:03.595Z,10.13
2022-10-21T05:08:11.442Z,13.43
2022-10-21T05:09:15.064Z,8.30
2022-10-21T05:10:17.802Z,10.40
2022-10-21T05:11:19.356Z,6.90
2022-10-21T05:12:22.301Z,6.90
2022-10-21T05:13:23.852Z,10.57
2022-10-21T05:14:26.359Z,7.20
2022-10-21T05:15:27.955Z,11.18
2022-10-21T05:16:30.436Z,14.98
2022-10-21T05:17:31.952Z,7.28
2022-10-21T05:18:34.510Z,10.60
2022-10-21T05:19:35.987Z,7.25
2022-10-21T05:20:41.139Z,9.57
2022-10-21T05:21:42.808Z,9.95
2022-10-21T05:22:45.316Z,7.05
2022-10-21T05:23:46.991Z,11.75
2022-10-21T05:24:50.776Z,9.45
2022-10-21T05:25:52.397Z,8.10
2022-10-21T05:26:54.921Z,6.20
2022-10-21T05:27:56.420Z,7.07
2022-10-21T05:28:59.492Z,9.35
2022-10-21T05:30:01.052Z,9.23
2022-10-21T05:31:03.627Z,8.32
2022-10-21T05:32:05.665Z,7.85
2022-10-21T05:33:08.124Z,11.05
2022-10-21T05:34:10.589Z,10.15
2022-10-21T05:35:12.320Z,7.95
2022-10-21T05:36:14.803Z,9.50
2022-10-21T05:37:16.418Z,9.90
2022-10-21T05:38:19.036Z,8.43
2022-10-21T05:39:21.579Z,12.27
2022-10-21T05:40:24.591Z,8.85
2022-10-21T05:41:27.211Z,10.93
2022-10-21T05:42:28.758Z,5.25
2022-10-21T05:43:31.639Z,6.88
2022-10-21T05:44:33.319Z,6.30
2022-10-21T05:45:35.911Z,7.00
2022-10-21T05:46:38.607Z,5.95
2022-10-21T05:47:40.970Z,8.10
2022-10-21T05:48:43.536Z,7.60
2022-10-21T05:49:45.123Z,6.72
2022-10-21T05:50:48.351Z,6.35
2022-10-21T05:51:49.896Z,7.95
2022-10-21T05:52:53.891Z,7.47
2022-10-21T05:53:58.667Z,8.88
2022-10-21T05:55:00.249Z,8.73
2022-10-21T05:56:05.984Z,6.43
2022-10-21T05:57:07.649Z,10.82
2022-10-21T05:58:10.257Z,8.43
2022-10-21T05:59:12.778Z,6.00
2022-10-21T06:00:14.581Z,9.95
2022-10-21T06:01:18.609Z,8.02
2022-10-21T06:02:20.301Z,8.40
2022-10-21T06:03:23.642Z,8.07
2022-10-21T06:04:26.603Z,11.57
2022-10-21T06:05:31.640Z,7.60
2022-10-21T06:06:34.568Z,10.00
2022-10-21T06:07:36.963Z,15.73
2022-10-21T06:08:40.431Z,8.50
2022-10-21T06:09:42.118Z,9.02
2022-10-21T06:10:45.177Z,5.80
2022-10-21T06:11:49.487Z,6.68
2022-10-21T06:12:52.202Z,10.60
2022-10-21T06:13:53.838Z,10.07
2022-10-21T06:14:56.599Z,12.40
2022-10-21T06:15:58.969Z,5.75
2022-10-21T06:17:01.795Z,11.60
2022-10-21T06:18:04.579Z,10.80
2022-10-21T06:19:06.163Z,9.35
2022-10-21T06:20:09.429Z,13.70
2022-10-21T06:21:11.841Z,7.30
2022-10-21T06:22:15.865Z,9.55
2022-10-21T06:23:17.654Z,5.45
2022-10-21T06:24:20.107Z,7.00
2022-10-21T06:25:21.807Z,10.32
2022-10-21T06:26:24.355Z,10.13
2022-10-21T06:27:27.238Z,7.68
2022-10-21T06:28:31.694Z,8.98
2022-10-21T06:29:33.304Z,7.53
2022-10-21T06:30:36.476Z,6.57
2022-10-21T06:31:38.037Z,9.65
2022-10-21T06:32:40.528Z,6.82
2022-10-21T06:33:42.335Z,7.55
2022-10-21T06:34:44.863Z,8.38
2022-10-21T06:35:46.995Z,7.75
2022-10-21T06:36:49.691Z,7.88
2022-10-21T06:37:52.220Z,7.40
2022-10-21T06:38:53.978Z,10.05
2022-10-21T06:39:56.832Z,13.68
2022-10-21T06:41:02.089Z,10.77
2022-10-21T06:42:04.701Z,10.52
2022-10-21T06:43:07.611Z,8.02
2022-10-21T06:44:10.063Z,9.25
2022-10-21T06:45:12.703Z,11.63
2022-10-21T06:46:15.436Z,8.93
2022-10-21T06:47:18.113Z,6.88
2022-10-21T06:48:20.646Z,8.40
2022-10-21T06:49:22.192Z,9.75
2022-10-21T06:50:24.796Z,5.93
2022-10-21T06:51:29.187Z,5.90
2022-10-21T06:52:31.127Z,7.03
2022-10-21T06:53:36.559Z,5.65
2022-10-21T06:54:40.640Z,5.25
2022-10-21T06:55:43.214Z,8.75
2022-10-21T06:56:45.950Z,4.55
2022-10-21T06:57:48.521Z,5.00
2022-10-21T06:58:52.804Z,9.38
2022-10-21T06:59:54.333Z,7.90
2022-10-21T07:00:56.840Z,9.52
2022-10-21T07:02:00.909Z,8.75
2022-10-21T07:03:03.740Z,9.32
2022-10-21T07:04:06.997Z,15.05
2022-10-21T07:05:10.355Z,5.60
2022-10-21T07:06:12.305Z,12.73
2022-10-21T07:07:15.353Z,5.45
2022-10-21T07:08:19.820Z,6.57
2022-10-21T07:09:25.302Z,8.57
2022-10-21T07:10:26.867Z,11.73
2022-10-21T07:11:29.797Z,4.10
2022-10-21T07:12:32.522Z,4.15
2022-10-21T07:13:35.376Z,5.10
2022-10-21T07:14:39.227Z,5.45
2022-10-21T07:15:40.756Z,8.70
2022-10-21T07:16:43.510Z,8.90
2022-10-21T07:17:46.570Z,7.75
2022-10-21T07:18:49.137Z,4.93
2022-10-21T07:19:50.687Z,4.75
2022-10-21T07:20:53.203Z,9.43
2022-10-21T07:21:55.865Z,8.85
2022-10-21T07:22:58.495Z,7.70
2022-10-21T07:24:00.716Z,10.45
2022-10-21T07:25:04.873Z,8.05
2022-10-21T07:26:07.527Z,7.25
2022-10-21T07:27:10.021Z,6.55
2022-10-21T07:28:11.640Z,10.63
2022-10-21T07:29:14.257Z,11.18
2022-10-21T07:30:17.615Z,9.35
2022-10-21T07:31:21.849Z,5.50
2022-10-21T07:32:23.412Z,4.80
2022-10-21T07:33:26.045Z,6.97
2022-10-21T07:34:28.692Z,9.70
2022-10-21T07:35:30.253Z,11.40
2022-10-21T07:36:35.154Z,11.63
2022-10-21T07:37:37.063Z,10.15
2022-10-21T07:38:41.164Z,13.55
2022-10-21T07:39:42.734Z,13.95
2022-10-21T07:40:45.663Z,11.55
2022-10-21T07:41:49.273Z,22.83
2022-10-21T07:42:51.779Z,13.80
2022-10-21T07:43:55.066Z,11.75
2022-10-21T07:44:59.362Z,10.65
2022-10-21T07:46:06.101Z,11.15
2022-10-21T07:47:09.617Z,22.98
2022-10-21T07:48:11.152Z,11.85
2022-10-21T07:49:15.034Z,8.02
2022-10-21T07:50:17.942Z,9.57
2022-10-21T07:51:26.884Z,7.57
2022-10-21T07:52:33.705Z,7.88
2022-10-21T07:53:38.661Z,6.15
2022-10-21T07:54:41.199Z,10.18
2022-10-21T07:55:42.731Z,8.85
2022-10-21T07:56:47.480Z,7.78
2022-10-21T07:57:49.057Z,6.32
2022-10-21T07:58:52.442Z,10.07
2022-10-21T07:59:55.029Z,9.63
2022-10-21T08:00:58.473Z,8.88
2022-10-21T08:02:02.450Z,6.93
2022-10-21T08:03:03.944Z,9.27
2022-10-21T08:04:07.404Z,7.80
2022-10-21T08:05:10.294Z,6.35
2022-10-21T08:06:13.690Z,10.27
2022-10-21T08:07:16.250Z,9.27
2022-10-21T08:08:21.596Z,15.27
2022-10-21T08:09:24.085Z,6.63
2022-10-21T08:10:25.613Z,7.00
2022-10-21T08:11:30.613Z,8.77
2022-10-21T08:12:32.169Z,6.57
2022-10-21T08:13:34.879Z,9.32
2022-10-21T08:14:37.492Z,4.93
2022-10-21T08:15:41.928Z,5.43
2022-10-21T08:16:44.413Z,7.57
2022-10-21T08:17:48.285Z,10.18
2022-10-21T08:18:50.018Z,6.32
2022-10-21T08:19:58.620Z,9.57
2022-10-21T08:21:02.661Z,9.02
2022-10-21T08:22:06.337Z,7.68
2022-10-21T08:23:08.087Z,7.70
2022-10-21T08:24:10.725Z,9.68
2022-10-21T08:25:16.576Z,5.07
2022-10-21T08:26:21.230Z,7.47
2022-10-21T08:27:23.689Z,15.75
2022-10-21T08:28:27.159Z,6.43
2022-10-21T08:29:29.662Z,8.48
2022-10-21T08:30:31.810Z,25.60
2022-10-21T08:31:35.980Z,8.10
2022-10-21T08:32:38.779Z,12.45
2022-10-21T08:33:44.059Z,12.07
2022-10-21T08:34:46.660Z,8.35
2022-10-21T08:35:48.221Z,11.98
2022-10-21T08:36:50.957Z,8.32
2022-10-21T08:37:52.555Z,16.40
2022-10-21T08:38:55.595Z,10.43
2022-10-21T08:39:57.192Z,10.45
2022-10-21T08:41:00.823Z,10.73
2022-10-21T08:42:08.073Z,8.60
2022-10-21T08:43:15.695Z,8.27
2022-10-21T08:44:42.790Z,8.07
2022-10-21T08:45:49.302Z,7.53
2022-10-21T08:46:58.377Z,12.10
2022-10-21T08:48:06.534Z,10.52
2022-10-21T08:49:16.340Z,9.60
2022-10-21T08:50:22.680Z,6.53
2022-10-21T08:51:29.568Z,9.60
2022-10-21T08:52:40.864Z,9.35
2022-10-21T08:53:48.666Z,10.15
2022-10-21T08:54:56.079Z,7.30
2022-10-21T08:56:03.261Z,11.90
2022-10-21T08:57:05.155Z,8.90
2022-10-21T08:58:16.233Z,7.53
2022-10-21T08:59:21.756Z,10.07
2022-10-21T09:00:26.884Z,10.25
2022-10-21T09:01:34.444Z,11.38
2022-10-21T09:02:47.451Z,7.50
2022-10-21T09:03:55.938Z,8.43
2022-10-21T09:05:19.742Z,10.38
2022-10-21T09:06:25.713Z,10.93
2022-10-21T09:07:36.231Z,7.30
2022-10-21T09:08:47.374Z,9.38
2022-10-21T09:09:55.677Z,11.27
2022-10-21T09:11:02.382Z,11.63
2022-10-21T09:12:09.869Z,13.52
2022-10-21T09:13:17.528Z,8.63
2022-10-21T09:14:43.419Z,9.40
2022-10-21T09:15:56.571Z,9.18
2022-10-21T09:17:06.139Z,9.10
2022-10-21T09:18:22.415Z,16.90
2022-10-21T09:19:35.571Z,7.60
2022-10-21T09:20:56.040Z,8.85
2022-10-21T09:22:34.318Z,11.77
2022-10-21T09:23:52.896Z,20.38
2022-10-21T09:25:04.848Z,11.27
2022-10-21T09:26:23.384Z,15.07
2022-10-21T09:27:54.806Z,13.68
2022-10-21T09:28:51.657Z,12.95
2022-10-21T09:29:58.766Z,8.25
2022-10-21T09:31:04.864Z,9.55
2022-10-21T09:32:15.638Z,12.68
2022-10-21T09:33:24.086Z,11.80
2022-10-21T09:34:38.968Z,8.55
2022-10-21T09:35:48.043Z,9.43
2022-10-21T09:36:52.297Z,14.00
2022-10-21T09:37:58.467Z,16.98
2022-10-21T09:39:03.182Z,10.82
2022-10-21T09:40:16.070Z,12.85
2022-10-21T09:42:42.707Z,6.63
2022-10-21T09:43:48.671Z,9.65
2022-10-21T09:44:51.543Z,9.93
2022-10-21T09:45:55.157Z,9.10
2022-10-21T09:46:56.709Z,6.63
2022-10-21T09:48:01.615Z,7.55
2022-10-21T09:50:27.634Z,6.50
2022-10-21T09:51:34.944Z,8.80
2022-10-21T09:52:37.952Z,8.07
2022-10-21T09:53:52.928Z,9.50
2022-10-21T09:54:57.696Z,11.57
2022-10-21T09:56:03.714Z,8.93
2022-10-21T09:57:16.713Z,8.70
2022-10-21T09:58:26.782Z,9.18
2022-10-21T09:59:32.886Z,9.32
2022-10-21T10:00:45.593Z,10.67
2022-10-21T10:01:49.910Z,8.05
2022-10-21T10:02:51.673Z,14.57
2022-10-21T10:03:54.920Z,6.83
2022-10-21T10:04:56.832Z,9.32
2022-10-21T10:05:59.846Z,8.00
2022-10-21T10:07:19.371Z,12.93
2022-10-21T10:08:29.410Z,11.83
2022-10-21T10:09:33.896Z,12.48
2022-10-21T10:10:35.408Z,9.07
2022-10-21T10:11:50.206Z,7.80
2022-10-21T10:12:56.885Z,15.50
2022-10-21T10:14:17.761Z,10.60
2022-10-21T10:15:29.316Z,8.05
2022-10-21T10:16:34.113Z,6.57
2022-10-21T10:17:39.644Z,12.15
2022-10-21T10:18:42.110Z,6.80
2022-10-21T10:19:44.723Z,7.30
2022-10-21T10:20:46.239Z,6.47
2022-10-21T10:22:10.736Z,9.20
2022-10-21T10:23:19.921Z,12.90
2022-10-21T10:24:22.845Z,9.05
2022-10-21T10:25:28.442Z,9.10
2022-10-21T10:26:34.165Z,12.82
2022-10-21T10:27:36.503Z,8.63
2022-10-21T10:28:39.234Z,10.65
2022-10-21T10:29:42.517Z,10.38
2022-10-21T10:30:49.452Z,9.60
2022-10-21T10:31:55.406Z,14.63
2022-10-21T10:32:58.243Z,13.90
2022-10-21T10:34:04.546Z,8.77
2022-10-21T10:35:15.279Z,8.45
2022-10-21T10:36:28.654Z,11.45
2022-10-21T10:37:36.166Z,7.72
2022-10-21T10:38:42.078Z,9.18
2022-10-21T10:39:49.210Z,9.45
2022-10-21T10:40:54.207Z,8.57
2022-10-21T10:41:59.852Z,10.35
2022-10-21T10:43:07.092Z,13.13
2022-10-21T10:44:12.451Z,10.60
2022-10-21T10:45:20.258Z,12.52
2022-10-21T10:46:25.606Z,11.20
2022-10-21T10:47:31.597Z,6.53
2022-10-21T10:48:37.631Z,10.20
2022-10-21T10:49:43.720Z,16.05
2022-10-21T10:50:47.220Z,14.05
2022-10-21T10:52:04.224Z,8.75
2022-10-21T10:53:24.664Z,9.55
2022-10-21T10:54:29.303Z,11.63
2022-10-21T10:55:33.909Z,12.67
2022-10-21T10:56:42.195Z,10.30
2022-10-21T10:57:58.986Z,10.23
2022-10-21T10:59:16.951Z,13.23
2022-10-21T11:00:21.079Z,8.40
2022-10-21T11:01:27.888Z,9.07
2022-10-21T11:02:38.977Z,14.48
2022-10-21T11:03:45.815Z,7.25
2022-10-21T11:05:07.915Z,7.72
2022-10-21T11:06:17.371Z,7.15
2022-10-21T11:07:26.644Z,12.52
2022-10-21T11:08:35.197Z,10.05
2022-10-21T11:09:38.363Z,9.73
2022-10-21T11:10:44.600Z,8.80
2022-10-21T11:11:49.425Z,8.68
2022-10-21T11:12:50.965Z,12.73
2022-10-21T11:13:54.444Z,8.60
2022-10-21T11:14:58.378Z,9.02
2022-10-21T11:16:12.389Z,9.07
2022-10-21T11:17:19.994Z,6.50
2022-10-21T11:18:29.108Z,9.07
2022-10-21T11:19:41.189Z,6.00
2022-10-21T11:20:54.079Z,7.18
2022-10-21T11:22:06.259Z,12.73
2022-10-21T11:23:29.035Z,5.77
2022-10-21T11:24:55.239Z,8.95
2022-10-21T11:26:03.981Z,8.40
2022-10-21T11:27:13.486Z,8.52
2022-10-21T11:28:27.433Z,10.00
2022-10-21T11:29:40.787Z,8.82
2022-10-21T11:30:58.256Z,7.13
2022-10-21T11:32:12.649Z,12.93
2022-10-21T11:33:26.357Z,7.70
2022-10-21T11:34:40.317Z,8.83
2022-10-21T11:35:54.267Z,12.93
2022-10-21T11:37:06.656Z,8.70
2022-10-21T11:38:30.482Z,5.82
2022-10-21T11:39:43.030Z,8.13
2022-10-21T11:40:49.865Z,9.77
2022-10-21T11:42:01.138Z,6.85
2022-10-21T11:43:16.390Z,8.23
2022-10-21T11:44:29.630Z,6.87
2022-10-21T11:45:39.607Z,7.17
2022-10-21T11:46:53.453Z,9.77
2022-10-21T11:48:02.459Z,9.00
2022-10-21T11:49:18.783Z,8.03
2022-10-21T11:50:32.381Z,10.70
2022-10-21T11:51:43.261Z,10.50
2022-10-21T11:53:11.546Z,6.22
2022-10-21T11:54:37.136Z,7.88
2022-10-21T11:55:50.456Z,10.65
2022-10-21T11:56:59.375Z,8.60
2022-10-21T11:58:13.340Z,7.23
2022-10-21T11:59:27.136Z,11.50
2022-10-21T12:00:38.052Z,5.93
2022-10-21T12:01:48.599Z,5.70
2022-10-21T12:03:14.409Z,11.33
2022-10-21T12:04:26.132Z,8.33
2022-10-21T12:05:32.605Z,11.10
2022-10-21T12:06:38.748Z,4.33
2022-10-21T12:07:58.446Z,6.70
2022-10-21T12:09:03.702Z,7.13
2022-10-21T12:10:13.467Z,6.27
2022-10-21T12:11:21.842Z,7.70
2022-10-21T12:12:30.055Z,6.37
2022-10-21T12:13:36.841Z,7.93
2022-10-21T12:14:42.341Z,12.53
2022-10-21T12:15:49.375Z,5.63
2022-10-21T12:16:53.715Z,4.90
2022-10-21T12:17:57.661Z,6.07
2022-10-21T12:19:05.478Z,7.60
2022-10-21T12:20:18.071Z,7.40
2022-10-21T12:21:26.882Z,4.90
2022-10-21T12:22:33.047Z,7.40
2022-10-21T12:23:34.799Z,11.53
2022-10-21T12:24:48.388Z,5.93
2022-10-21T12:26:04.724Z,6.90
2022-10-21T12:27:18.371Z,9.65
2022-10-21T12:28:29.119Z,4.70
2022-10-21T12:29:44.447Z,7.90
2022-10-21T12:30:54.847Z,5.30
2022-10-21T12:32:06.180Z,4.50
2022-10-21T12:33:17.050Z,8.27
2022-10-21T12:34:19.773Z,5.10
2022-10-21T12:35:26.996Z,5.60
2022-10-21T12:36:44.805Z,11.10
2022-10-21T12:38:06.972Z,5.90
2022-10-21T12:39:16.632Z,5.07
2022-10-21T12:40:35.830Z,4.87
2022-10-21T12:41:39.298Z,11.20
2022-10-21T12:42:46.595Z,5.60
2022-10-21T12:43:54.673Z,4.73
2022-10-21T12:44:56.281Z,7.50
2022-10-21T12:46:05.329Z,3.10
2022-10-21T12:47:24.842Z,4.00
2022-10-21T12:48:32.545Z,6.73
2022-10-21T12:49:36.336Z,6.37
2022-10-21T12:50:38.212Z,9.03
2022-10-21T12:51:41.084Z,7.60
2022-10-21T12:52:45.876Z,7.90
2022-10-21T12:55:02.084Z,4.60
2022-10-21T12:56:05.326Z,3.63
2022-10-21T12:57:10.938Z,5.97
2022-10-21T12:58:25.448Z,4.30
2022-10-21T12:59:31.761Z,6.70
2022-10-21T13:00:54.859Z,4.93
2022-10-21T13:02:27.083Z,3.70
2022-10-21T13:03:52.008Z,6.50
2022-10-21T13:04:57.286Z,4.93
2022-10-21T13:06:02.724Z,4.00
2022-10-21T13:07:06.377Z,3.60
2022-10-21T13:08:27.105Z,5.67
2022-10-21T13:09:34.870Z,4.00
2022-10-21T13:10:37.360Z,9.83
2022-10-21T13:11:40.870Z,6.83
2022-10-21T13:12:43.486Z,4.03
2022-10-21T13:13:48.396Z,6.67
2022-10-21T13:14:52.500Z,9.93
2022-10-21T13:15:55.430Z,12.00
2022-10-21T13:17:17.218Z,8.50
2022-10-21T13:19:04.868Z,5.40
2022-10-21T13:20:53.060Z,5.40
2022-10-21T13:22:03.293Z,8.00
2022-10-21T13:23:31.679Z,6.77
2022-10-21T13:24:35.093Z,4.93
2022-10-21T13:25:36.887Z,6.40
2022-10-21T13:26:41.629Z,10.30
2022-10-21T13:27:46.160Z,4.30
2022-10-21T13:29:21.823Z,8.27
2022-10-21T13:30:29.123Z,7.93
2022-10-21T13:31:32.128Z,6.90
2022-10-21T13:32:36.111Z,10.00
2022-10-21T13:33:38.748Z,9.67
2022-10-21T13:34:43.547Z,7.33
2022-10-21T13:35:48.699Z,5.60
2022-10-21T13:36:52.774Z,7.13
2022-10-21T13:37:58.819Z,7.60
2022-10-21T13:39:04.961Z,7.70
2022-10-21T13:40:15.411Z,7.30
2022-10-21T13:41:22.522Z,7.70
2022-10-21T13:42:27.469Z,6.97
2022-10-21T13:43:39.179Z,5.27
2022-10-21T13:44:50.207Z,4.70
2022-10-21T13:45:58.312Z,6.37
2022-10-21T13:47:18.688Z,5.87
2022-10-21T13:48:25.178Z,5.40
2022-10-21T13:49:28.764Z,6.23
2022-10-21T13:50:33.909Z,7.20
2022-10-21T13:51:46.541Z,10.13
2022-10-21T13:52:48.083Z,5.77
2022-10-21T13:53:54.675Z,13.13
2022-10-21T13:54:57.012Z,5.73
2022-10-21T13:56:02.848Z,8.37
2022-10-21T13:57:07.403Z,8.17
2022-10-21T13:58:16.333Z,8.50
2022-10-21T13:59:24.693Z,6.37
2022-10-21T14:00:30.205Z,8.20
2022-10-21T14:01:46.299Z,6.30
2022-10-21T14:02:48.672Z,11.30
2022-10-21T14:03:53.107Z,8.13
2022-10-21T14:04:54.799Z,6.30
2022-10-21T14:06:01.246Z,7.80
2022-10-21T14:07:07.799Z,10.40
2022-10-21T14:08:21.101Z,7.60
2022-10-21T14:09:28.596Z,7.33
2022-10-21T14:10:30.931Z,3.23
2022-10-21T14:11:37.593Z,3.60
2022-10-21T14:12:44.836Z,8.50
2022-10-21T14:13:49.102Z,10.10
2022-10-21T14:14:52.756Z,5.30
2022-10-21T14:15:57.269Z,4.30
2022-10-21T14:17:02.685Z,8.40
2022-10-21T14:18:07.947Z,5.37
2022-10-21T14:19:16.350Z,8.27
2022-10-21T14:20:26.147Z,9.23
2022-10-21T14:21:33.079Z,5.87
2022-10-21T14:22:36.681Z,5.20
2022-10-21T14:23:39.823Z,7.37
2022-10-21T14:24:45.134Z,6.40
2022-10-21T14:25:49.586Z,5.43
2022-10-21T14:26:52.587Z,6.23
2022-10-21T14:27:54.407Z,4.23
2022-10-21T14:28:58.662Z,2.80
2022-10-21T14:30:05.790Z,2.97
2022-10-21T14:31:12.380Z,3.43